South Fork, Wisconsin
Current Conditions -  °F | °C
As of 10:55 PM on Saturday 22 Nov 2014 (Local Time) from KRCX Reporting Station
Haze Haze  
Wind Chill: 32°   Ceiling: 200
Heat Index: 37°   Visibility: 0.75mi
Dew Point: 36°   Wind: 6mph
Humidity: 97%   Direction: 140°SE
Pressure: 29.64"   Gusts: NA
Location:  45.5192°N, 90.7243°W
Report Text: KRCX 230455Z AUTO 14005KT 3/4SM BR OVC002 03/02 A2964 RMK AO2 T00250021
Loading
Personal Weather Stations






























Interactive Weather Map New forecast layout! Learn more

10-Day Weather Forecast

Advertisements
Track Severe Weather on mobile